Latest Weather Observations for Rottnest Island

IDW60901

Issued at 12:01 am WST Thursday 19 January 2017 (issued every 10 minutes, with the page automatically refreshed every 10 minutes)

About weather observations | Map of Perth area stations | Latest observations for Perth area | Other Formats
Station Details ID: 009193 Name: ROTTNEST ISLAND Lat: -32.01 Lon: 115.50 Height: 43.1 m
Data from the previous 72 hours. | See also: Recent months at Rottnest Island
Date/Time
WST
Temp
°C
App
Temp
°C
Dew
Point
°C
Rel
Hum
%
Delta-T
°C
Wind Press
QNH
hPa
Press
MSL
hPa
Rain since
9am
mm
Dir  Spd
km/h
Gust
km/h
Spd
kts
Gust
kts
18/11:30pm 18.6 11.4 14.7 78 2.3 SSW 46 56 25 30 1010.1 1009.9 0.0
18/11:00pm 18.7 11.6 15.0 79 2.2 SSW 46 61 25 33 1010.3 1010.1 0.0
18/10:30pm 19.0 11.5 15.1 78 2.3 SSW 48 57 26 31 1009.9 1009.7 0.0
18/10:00pm 19.0 11.1 14.9 77 2.4 SSW 50 63 27 34 1009.8 1009.6 0.0
18/09:30pm 19.0 11.5 15.1 78 2.3 SSW 48 63 26 34 1009.4 1009.2 0.0
18/09:00pm 19.3 12.7 15.4 78 2.3 SSW 44 61 24 33 1009.1 1008.9 0.0
18/08:30pm 19.3 12.4 15.6 79 2.2 SSW 46 57 25 31 1008.4 1008.2 0.0
18/08:00pm 19.2 11.5 15.5 79 2.2 SSW 50 67 27 36 1008.0 1007.8 0.0
18/07:30pm 19.6 12.4 15.9 79 2.2 SSW 48 59 26 32 1007.3 1007.2 0.0
18/07:00pm 20.5 14.4 16.1 76 2.6 SSW 43 54 23 29 1007.1 1007.0 0.0
18/06:30pm 20.5 14.1 15.3 72 3.1 SSW 43 54 23 29 1006.8 1006.7 0.0
18/06:00pm 20.5 14.7 15.9 75 2.8 SSW 41 54 22 29 1006.6 1006.5 0.0
18/05:30pm 20.8 14.9 16.6 77 2.5 SSW 43 56 23 30 1006.6 1006.5 0.0
18/05:00pm 20.7 15.3 15.9 74 2.9 SSW 39 48 21 26 1006.5 1006.4 0.0
18/04:30pm 21.9 17.7 16.2 70 3.4 SSW 33 44 18 24 1006.6 1006.5 0.0
18/04:00pm 21.8 18.1 16.1 70 3.4 SSW 30 39 16 21 1006.9 1006.8 0.0
18/03:30pm 22.3 18.5 16.6 70 3.5 SSW 32 39 17 21 1007.3 1007.2 0.0
18/03:00pm 22.4 18.5 16.4 69 3.7 SSW 32 39 17 21 1007.4 1007.3 0.0
18/02:30pm 23.7 20.7 16.7 65 4.3 SSW 28 37 15 20 1007.8 1007.7 0.0
18/02:05pm 25.0 23.4 16.4 59 5.3 SSW 20 37 11 20 1008.0 1007.8 0.0
18/02:00pm 27.8 26.1 12.6 39 8.9 S 13 17 7 9 1007.8 1007.7 0.0
18/01:30pm 29.9 27.4 10.9 31 10.9 S 15 20 8 11 1007.7 1007.6 0.0
18/01:00pm 28.2 25.4 11.3 35 9.7 SSE 17 22 9 12 1008.3 1008.1 0.0
18/12:30pm 29.3 27.1 10.9 32 10.5 ENE 13 20 7 11 1008.6 1008.4 0.0
18/12:00pm 27.5 24.6 11.1 36 9.4 ENE 17 24 9 13 1009.1 1008.9 0.0
18/11:30am 27.2 23.8 11.3 37 9.1 ENE 20 30 11 16 1009.5 1009.3 0.0
18/11:00am 26.6 22.5 11.5 39 8.6 NE 24 32 13 17 1009.8 1009.6 0.0
18/10:30am 25.3 20.7 11.1 41 8.0 ENE 26 33 14 18 1010.0 1009.8 0.0
18/10:00am 24.4 19.4 11.0 43 7.5 ENE 28 37 15 20 1010.4 1010.2 0.0
18/09:30am 23.9 19.6 11.9 47 6.8 ENE 26 35 14 19 1010.5 1010.3 0.0
18/09:00am 22.2 16.5 11.3 50 6.1 ENE 32 43 17 23 1010.7 1010.5 0.0
18/08:30am 21.1 15.0 10.6 51 5.7 ENE 33 44 18 24 1011.0 1010.8 0.0
18/08:00am 20.5 14.4 10.3 52 5.5 ENE 33 46 18 25 1011.3 1011.1 0.0
18/07:30am 19.7 13.7 10.1 54 5.2 ENE 32 46 17 25 1011.4 1011.2 0.0
18/07:11am 19.2 13.0 9.9 55 5.0 ENE 33 52 18 28 1011.3 1011.1 0.0
18/07:00am 19.0 12.3 9.8 55 4.9 ENE 35 50 19 27 1011.4 1011.2 0.0
18/06:44am 18.8 11.3 9.6 55 4.9 ENE 39 57 21 31 1011.2 1011.0 0.0
18/06:30am 18.6 11.5 9.7 56 4.7 ENE 37 54 20 29 1011.1 1010.9 0.0
18/06:00am 18.4 11.3 9.7 57 4.6 ENE 37 56 20 30 1011.1 1010.9 0.0
18/05:48am 18.4 10.6 9.7 57 4.6 ENE 41 59 22 32 1010.9 1010.7 0.0
18/05:30am 18.5 11.4 9.6 56 4.7 ENE 37 54 20 29 1010.9 1010.7 0.0
18/05:00am 18.9 12.8 9.9 56 4.8 ENE 32 52 17 28 1010.7 1010.5 0.0
18/04:43am 19.1 13.5 10.1 56 4.8 ENE 30 48 16 26 1010.5 1010.3 0.0
18/04:30am 18.9 14.2 10.7 59 4.4 E 26 35 14 19 1010.5 1010.3 0.0
18/04:00am 19.0 13.8 10.3 57 4.7 E 28 41 15 22 1010.2 1010.0 0.0
18/03:30am 19.3 14.4 10.0 55 5.0 E 26 39 14 21 1010.2 1010.0 0.0
18/03:00am 19.7 14.4 9.9 53 5.3 E 28 39 15 21 1010.3 1010.1 0.0
18/02:30am 20.1 14.7 9.4 50 5.7 E 28 41 15 22 1010.3 1010.1 0.0
18/02:00am 20.7 14.9 9.3 48 6.1 E 30 44 16 24 1010.4 1010.2 0.0
18/01:30am 21.5 15.9 8.7 44 6.8 E 28 46 15 25 1010.6 1010.4 0.0
18/01:29am 21.6 16.0 8.8 44 6.8 E 28 46 15 25 1010.5 1010.3 0.0
18/01:00am 22.1 16.8 8.6 42 7.2 E 26 39 14 21 1011.0 1010.8 0.0
18/12:30am 22.6 17.7 8.3 40 7.6 E 24 33 13 18 1011.1 1010.9 0.0
18/12:00am 21.5 18.5 12.1 55 5.3 ESE 19 24 10 13 1011.3 1011.1 0.0
 
Date/Time
WST
Temp
°C
App
Temp
°C
Dew
Point
°C
Rel
Hum
%
Delta-T
°C
Wind Press
QNH
hPa
Press
MSL
hPa
Rain since
9am
mm
Dir  Spd
km/h
Gust
km/h
Spd
kts
Gust
kts
17/11:30pm 20.8 19.3 16.2 75 2.8 SE 19 24 10 13 1011.5 1011.3 0.0
17/11:00pm 20.8 19.8 17.6 82 2.0 SSE 19 24 10 13 1011.5 1011.3 0.0
17/10:30pm 20.8 18.4 17.4 81 2.1 SSE 26 32 14 17 1011.8 1011.6 0.0
17/10:00pm 20.7 17.8 17.1 80 2.2 SSE 28 37 15 20 1011.8 1011.6 0.0
17/09:30pm 20.8 17.0 16.6 77 2.5 S 32 41 17 22 1011.8 1011.6 0.0
17/09:00pm 20.8 16.2 16.0 74 2.9 S 35 44 19 24 1011.7 1011.5 0.0
17/08:30pm 20.6 15.8 15.6 73 3.0 S 35 43 19 23 1011.6 1011.4 0.0
17/08:00pm 20.5 15.3 15.5 73 3.0 S 37 46 20 25 1011.4 1011.2 0.0
17/07:30pm 20.3 15.4 15.3 73 3.0 S 35 46 19 25 1011.3 1011.1 0.0
17/07:00pm 20.5 15.1 15.1 71 3.2 SSW 37 46 20 25 1011.2 1011.0 0.0
17/06:30pm 20.6 14.3 14.5 68 3.6 SSW 41 54 22 29 1010.8 1010.6 0.0
17/06:00pm 20.8 14.0 14.9 69 3.5 SSW 44 54 24 29 1010.8 1010.6 0.0
17/05:30pm 21.0 14.0 14.2 65 4.0 SSW 44 54 24 29 1010.7 1010.5 0.0
17/05:00pm 21.3 14.1 13.7 62 4.4 SSW 44 56 24 30 1010.8 1010.6 0.0
17/04:30pm 22.0 14.1 12.8 56 5.3 SSW 46 57 25 31 1011.0 1010.8 0.0
17/04:00pm 21.9 14.8 13.3 58 5.0 SSW 43 57 23 31 1011.3 1011.1 0.0
17/03:30pm 21.8 14.4 12.6 56 5.2 SSW 43 54 23 29 1011.6 1011.4 0.0
17/03:00pm 22.2 15.0 13.0 56 5.3 SSW 43 50 23 27 1011.8 1011.6 0.0
17/02:30pm 22.4 14.9 12.6 54 5.6 SSW 44 52 24 28 1012.0 1011.8 0.0
17/02:00pm 23.3 16.8 12.9 52 6.0 SSW 39 48 21 26 1012.4 1012.2 0.0
17/01:30pm 23.8 17.4 10.8 44 7.2 SSW 35 46 19 25 1012.8 1012.6 0.0
17/01:00pm 23.3 17.7 12.0 49 6.4 SSW 33 41 18 22 1013.1 1012.9 0.0
17/12:30pm 22.6 16.9 11.0 48 6.4 S 32 37 17 20 1013.2 1013.0 0.0
17/12:00pm 23.4 18.1 11.1 46 6.9 S 30 35 16 19 1013.4 1013.2 0.0
17/11:30am 22.7 17.7 11.1 48 6.5 SSE 28 33 15 18 1013.7 1013.5 0.0
17/11:00am 22.2 17.4 10.4 47 6.5 SSE 26 32 14 17 1014.0 1013.8 0.0
17/10:30am 21.5 16.7 10.3 49 6.1 SSE 26 33 14 18 1014.4 1014.2 0.0
17/10:00am 21.0 16.5 9.9 49 6.0 SE 24 32 13 17 1014.6 1014.4 0.0
17/09:30am 20.0 14.7 9.9 52 5.4 SE 28 35 15 19 1014.8 1014.6 0.0
17/09:00am 19.1 13.0 9.9 55 4.9 SE 32 37 17 20 1014.8 1014.6 0.0
17/08:30am 18.9 13.2 9.9 56 4.8 SE 30 39 16 21 1014.9 1014.7 0.0
17/08:00am 18.1 12.1 10.0 59 4.3 SE 32 43 17 23 1014.9 1014.7 0.0
17/07:30am 17.7 11.8 10.3 62 3.9 SE 32 43 17 23 1015.2 1015.0 0.0
17/07:00am 17.3 11.3 10.2 63 3.8 SE 32 39 17 21 1015.1 1014.9 0.0
17/06:30am 17.1 10.9 10.0 63 3.8 SE 33 41 18 22 1014.9 1014.7 0.0
17/06:00am 17.2 11.0 10.1 63 3.8 SSE 33 43 18 23 1014.7 1014.5 0.0
17/05:30am 17.3 10.8 10.2 63 3.8 SE 35 46 19 25 1014.3 1014.1 0.0
17/05:00am 17.3 10.8 10.2 63 3.8 SE 35 46 19 25 1013.8 1013.6 0.0
17/04:30am 17.5 10.3 10.4 63 3.8 SE 39 48 21 26 1013.4 1013.2 0.0
17/04:00am 17.6 10.4 10.7 64 3.7 SE 39 50 21 27 1012.9 1012.7 0.0
17/03:30am 17.9 10.6 10.3 61 4.1 SSE 39 52 21 28 1012.6 1012.4 0.0
17/03:00am 18.3 10.6 10.2 59 4.3 SE 41 56 22 30 1012.2 1012.0 0.0
17/02:30am 18.6 10.4 10.4 59 4.4 SE 44 57 24 31 1011.8 1011.6 0.0
17/02:00am 18.8 11.2 10.6 59 4.4 SSE 41 56 22 30 1011.4 1011.2 0.0
17/01:30am 19.1 10.6 12.1 64 3.9 SSE 48 63 26 34 1011.1 1010.9 0.0
17/01:00am 19.1 10.1 12.8 67 3.6 SSE 52 63 28 34 1010.9 1010.7 0.0
17/12:30am 18.9 9.3 12.2 65 3.7 SSE 54 65 29 35 1010.5 1010.3 0.0
17/12:00am 19.2 9.6 12.0 63 4.0 SSE 54 67 29 36 1010.4 1010.2 0.0
 
Date/Time
WST
Temp
°C
App
Temp
°C
Dew
Point
°C
Rel
Hum
%
Delta-T
°C
Wind Press
QNH
hPa
Press
MSL
hPa
Rain since
9am
mm
Dir  Spd
km/h
Gust
km/h
Spd
kts
Gust
kts
16/11:30pm 19.1 9.1 13.9 72 3.0 S 59 74 32 40 1010.4 1010.2 0.0
16/11:00pm 19.0 8.6 13.6 71 3.1 S 61 72 33 39 1010.1 1009.9 0.0
16/10:40pm 19.0 8.8 13.2 69 3.3 S 59 78 32 42 1010.0 1009.8 0.0
16/10:30pm 19.2 8.2 13.2 68 3.4 S 63 76 34 41 1010.0 1009.8 0.0
16/10:00pm 19.4 9.1 12.9 66 3.7 S 59 74 32 40 1010.5 1010.3 0.0
16/09:42pm 19.5 10.0 12.3 63 4.0 S 54 76 29 41 1010.2 1010.0 0.0
16/09:30pm 19.6 9.6 12.1 62 4.2 S 56 72 30 39 1010.2 1010.0 0.0
16/09:00pm 19.8 11.6 13.0 65 3.9 S 48 63 26 34 1010.3 1010.1 0.0
16/08:58pm 19.7 11.4 12.5 63 4.0 S 48 67 26 36 1010.2 1010.0 0.0
16/08:30pm 19.8 10.3 12.3 62 4.2 S 54 69 29 37 1010.1 1009.9 0.0
16/08:00pm 19.6 9.9 13.1 66 3.7 SSW 56 69 30 37 1010.0 1009.8 0.0
16/07:30pm 19.5 10.1 12.8 65 3.8 SSW 54 67 29 36 1009.5 1009.3 0.0
16/07:00pm 19.6 10.1 12.4 63 4.0 SSW 54 69 29 37 1009.6 1009.4 0.0
16/06:30pm 20.2 12.1 13.2 64 4.0 SSW 48 63 26 34 1009.6 1009.4 0.0
16/06:00pm 20.5 11.8 12.5 60 4.5 SSW 50 63 27 34 1009.4 1009.2 0.0
16/05:30pm 21.0 11.5 11.3 54 5.4 SSW 52 63 28 34 1009.1 1008.9 0.0
16/05:00pm 21.3 11.7 12.2 56 5.1 SSW 54 65 29 35 1009.0 1008.8 0.0
16/04:30pm 21.6 11.9 11.9 54 5.4 SSW 54 65 29 35 1009.1 1008.9 0.0
16/04:00pm 21.6 12.3 11.9 54 5.5 SSW 52 63 28 34 1009.3 1009.1 0.0
16/03:30pm 21.5 12.6 13.2 59 4.8 SSW 52 65 28 35 1009.5 1009.3 0.0
16/03:00pm 21.8 13.3 13.2 58 4.9 SSW 50 63 27 34 1009.6 1009.4 0.0
16/02:30pm 21.8 13.7 14.4 63 4.3 SSW 50 61 27 33 1009.7 1009.5 0.0
16/02:00pm 21.3 13.7 14.7 66 3.9 SSW 48 61 26 33 1009.9 1009.7 0.0
16/01:30pm 21.1 13.7 14.3 65 4.0 SSW 46 59 25 32 1010.0 1009.8 0.0
16/01:00pm 21.6 13.8 13.0 58 4.9 SSW 46 56 25 30 1010.2 1010.0 0.0
16/12:30pm 21.3 13.6 13.2 60 4.6 SSW 46 54 25 29 1010.3 1010.1 0.0
16/12:00pm 22.2 15.3 12.7 55 5.4 S 41 52 22 28 1010.5 1010.3 0.0
16/11:30am 21.6 14.8 11.9 54 5.4 S 39 48 21 26 1010.5 1010.3 0.0
16/11:00am 21.3 15.4 13.5 61 4.5 S 37 44 20 24 1010.7 1010.5 0.0
16/10:30am 21.2 14.9 13.4 61 4.5 S 39 46 21 25 1010.9 1010.7 0.0
16/10:00am 20.7 14.2 13.9 65 3.9 S 41 48 22 26 1010.6 1010.4 0.0
16/09:30am 21.0 15.6 13.9 64 4.1 S 35 43 19 23 1010.7 1010.5 0.0
16/09:00am 20.4 14.2 13.8 66 3.8 S 39 48 21 26 1010.5 1010.3 0.0
16/08:30am 20.5 14.3 13.7 65 3.9 SSE 39 46 21 25 1010.7 1010.5 0.0
16/08:00am 20.1 13.1 13.6 66 3.7 SSE 43 52 23 28 1010.4 1010.2 0.0
16/07:30am 19.6 12.5 13.3 67 3.6 SSE 43 54 23 29 1010.1 1009.9 0.0
16/07:00am 19.3 12.0 13.5 69 3.3 SSE 44 56 24 30 1009.9 1009.7 0.0
16/06:30am 19.1 10.7 13.5 70 3.2 S 50 59 27 32 1009.5 1009.3 0.0
16/06:00am 19.1 11.5 13.7 71 3.1 S 46 56 25 30 1009.3 1009.1 0.0
16/05:30am 18.9 13.0 13.5 71 3.1 S 37 44 20 24 1009.2 1009.0 0.0
16/05:00am 19.1 12.7 13.3 69 3.3 S 39 46 21 25 1008.8 1008.6 0.0
16/04:30am 19.0 12.4 13.6 71 3.1 S 41 48 22 26 1008.7 1008.5 0.0
16/04:00am 19.1 12.2 14.1 73 2.9 S 43 52 23 28 1008.3 1008.1 0.0
16/03:30am 19.2 12.8 14.2 73 2.9 S 41 50 22 27 1008.0 1007.8 0.0
16/03:00am 19.5 12.6 14.1 71 3.1 S 43 56 23 30 1007.7 1007.6 0.0
16/02:30am 19.6 11.7 13.8 69 3.3 S 48 57 26 31 1007.7 1007.6 0.0
16/02:00am 19.6 11.9 14.4 72 3.0 S 48 59 26 32 1007.5 1007.4 0.0
16/01:30am 19.5 11.4 14.5 73 2.9 S 50 61 27 33 1007.0 1006.9 0.0
16/01:00am 19.5 11.9 14.7 74 2.8 S 48 61 26 33 1007.2 1007.1 0.0
16/12:30am 19.6 12.0 14.8 74 2.8 S 48 59 26 32 1007.3 1007.2 0.0

Latest Capital City Observations: Canberra | Sydney | Melbourne | Brisbane | Adelaide | Perth | Hobart | Darwin

Other Formats:

Comma delimited format used in spreadsheet applications
http://www.bom.gov.au/fwo/IDW60901/IDW60901.94602.axf

JavaScript Object Notation format (JSON) in row-major order
http://www.bom.gov.au/fwo/IDW60901/IDW60901.94602.json